sensor_id;sensor_type;location;lat;lon;timestamp;temperature;humidity
61201;DHT22;47065;52.898;6.992;2022-08-05T00:01:56;17.80;99.90
61201;DHT22;47065;52.898;6.992;2022-08-05T00:04:22;17.80;99.90
61201;DHT22;47065;52.898;6.992;2022-08-05T00:06:47;17.80;99.90
61201;DHT22;47065;52.898;6.992;2022-08-05T00:09:13;17.80;99.90
61201;DHT22;47065;52.898;6.992;2022-08-05T00:11:39;17.70;99.90
61201;DHT22;47065;52.898;6.992;2022-08-05T00:14:05;17.70;99.90
61201;DHT22;47065;52.898;6.992;2022-08-05T00:16:30;17.70;99.90
61201;DHT22;47065;52.898;6.992;2022-08-05T00:18:56;17.70;99.90
61201;DHT22;47065;52.898;6.992;2022-08-05T00:21:21;17.70;99.90
61201;DHT22;47065;52.898;6.992;2022-08-05T00:23:47;17.60;99.90
61201;DHT22;47065;52.898;6.992;2022-08-05T00:26:14;17.60;99.90
61201;DHT22;47065;52.898;6.992;2022-08-05T00:28:40;17.60;99.90
61201;DHT22;47065;52.898;6.992;2022-08-05T00:31:06;17.60;99.90
61201;DHT22;47065;52.898;6.992;2022-08-05T00:33:33;17.60;99.90
61201;DHT22;47065;52.898;6.992;2022-08-05T00:35:59;17.60;99.90
61201;DHT22;47065;52.898;6.992;2022-08-05T00:38:25;17.50;99.90
61201;DHT22;47065;52.898;6.992;2022-08-05T00:40:54;17.50;99.90
61201;DHT22;47065;52.898;6.992;2022-08-05T00:43:20;17.50;99.90
61201;DHT22;47065;52.898;6.992;2022-08-05T00:45:46;17.50;99.90
61201;DHT22;47065;52.898;6.992;2022-08-05T00:48:22;17.40;99.90
61201;DHT22;47065;52.898;6.992;2022-08-05T00:50:50;17.40;99.90
61201;DHT22;47065;52.898;6.992;2022-08-05T00:53:20;17.40;99.90
61201;DHT22;47065;52.898;6.992;2022-08-05T00:55:47;17.40;99.90
61201;DHT22;47065;52.898;6.992;2022-08-05T00:58:14;17.40;99.90
61201;DHT22;47065;52.898;6.992;2022-08-05T01:00:42;17.40;99.90
61201;DHT22;47065;52.898;6.992;2022-08-05T01:03:08;17.40;99.90
61201;DHT22;47065;52.898;6.992;2022-08-05T01:05:35;17.40;99.90
61201;DHT22;47065;52.898;6.992;2022-08-05T01:08:01;17.40;99.90
61201;DHT22;47065;52.898;6.992;2022-08-05T01:10:29;17.50;99.90
61201;DHT22;47065;52.898;6.992;2022-08-05T01:12:59;17.50;99.90
61201;DHT22;47065;52.898;6.992;2022-08-05T01:15:33;17.40;99.90
61201;DHT22;47065;52.898;6.992;2022-08-05T01:18:04;17.40;99.90
61201;DHT22;47065;52.898;6.992;2022-08-05T01:20:39;17.40;99.90
61201;DHT22;47065;52.898;6.992;2022-08-05T01:25:45;17.40;99.90
61201;DHT22;47065;52.898;6.992;2022-08-05T01:36:30;17.40;99.90
61201;DHT22;47065;52.898;6.992;2022-08-05T01:38:57;17.50;99.90
61201;DHT22;47065;52.898;6.992;2022-08-05T01:41:24;17.50;99.90
61201;DHT22;47065;52.898;6.992;2022-08-05T01:43:52;17.50;99.90
61201;DHT22;47065;52.898;6.992;2022-08-05T01:46:19;17.50;99.90
61201;DHT22;47065;52.898;6.992;2022-08-05T01:48:46;17.50;99.90
61201;DHT22;47065;52.898;6.992;2022-08-05T01:51:13;17.50;99.90
61201;DHT22;47065;52.898;6.992;2022-08-05T01:53:40;17.50;99.90
61201;DHT22;47065;52.898;6.992;2022-08-05T01:56:08;17.60;99.90
61201;DHT22;47065;52.898;6.992;2022-08-05T01:58:36;17.60;99.90
61201;DHT22;47065;52.898;6.992;2022-08-05T02:01:03;17.60;99.90
61201;DHT22;47065;52.898;6.992;2022-08-05T02:03:38;17.60;99.90
61201;DHT22;47065;52.898;6.992;2022-08-05T02:06:06;17.60;99.90
61201;DHT22;47065;52.898;6.992;2022-08-05T02:08:32;17.60;99.90
61201;DHT22;47065;52.898;6.992;2022-08-05T02:11:03;17.70;99.90
61201;DHT22;47065;52.898;6.992;2022-08-05T02:13:41;17.60;99.90
61201;DHT22;47065;52.898;6.992;2022-08-05T02:19:12;17.70;99.90
61201;DHT22;47065;52.898;6.992;2022-08-05T02:21:39;17.70;99.90
61201;DHT22;47065;52.898;6.992;2022-08-05T02:24:10;17.70;99.90
61201;DHT22;47065;52.898;6.992;2022-08-05T02:26:48;17.70;99.90
61201;DHT22;47065;52.898;6.992;2022-08-05T02:29:20;17.70;99.90
61201;DHT22;47065;52.898;6.992;2022-08-05T02:31:47;17.70;99.90
61201;DHT22;47065;52.898;6.992;2022-08-05T02:34:14;17.70;99.90
61201;DHT22;47065;52.898;6.992;2022-08-05T02:36:44;17.70;99.90
61201;DHT22;47065;52.898;6.992;2022-08-05T02:39:15;17.70;99.90
61201;DHT22;47065;52.898;6.992;2022-08-05T02:41:42;17.70;99.90
61201;DHT22;47065;52.898;6.992;2022-08-05T02:44:10;17.70;99.90
61201;DHT22;47065;52.898;6.992;2022-08-05T02:46:39;17.70;99.90
61201;DHT22;47065;52.898;6.992;2022-08-05T02:49:06;17.70;99.90
61201;DHT22;47065;52.898;6.992;2022-08-05T02:51:34;17.70;99.90
61201;DHT22;47065;52.898;6.992;2022-08-05T02:54:01;17.70;99.90
61201;DHT22;47065;52.898;6.992;2022-08-05T02:56:27;17.70;99.90
61201;DHT22;47065;52.898;6.992;2022-08-05T02:58:54;17.70;99.90
61201;DHT22;47065;52.898;6.992;2022-08-05T03:01:23;17.70;99.90
61201;DHT22;47065;52.898;6.992;2022-08-05T03:03:52;17.70;99.90
61201;DHT22;47065;52.898;6.992;2022-08-05T03:06:20;17.80;99.90
61201;DHT22;47065;52.898;6.992;2022-08-05T03:08:46;17.80;99.90
61201;DHT22;47065;52.898;6.992;2022-08-05T03:11:18;17.70;99.90
61201;DHT22;47065;52.898;6.992;2022-08-05T03:13:43;17.80;99.90
61201;DHT22;47065;52.898;6.992;2022-08-05T03:16:09;17.80;99.90
61201;DHT22;47065;52.898;6.992;2022-08-05T03:18:34;17.80;99.90
61201;DHT22;47065;52.898;6.992;2022-08-05T03:21:00;17.80;99.90
61201;DHT22;47065;52.898;6.992;2022-08-05T03:23:26;17.70;99.90
61201;DHT22;47065;52.898;6.992;2022-08-05T03:25:52;17.70;99.90
61201;DHT22;47065;52.898;6.992;2022-08-05T03:28:19;17.70;99.90
61201;DHT22;47065;52.898;6.992;2022-08-05T03:30:46;17.70;99.90
61201;DHT22;47065;52.898;6.992;2022-08-05T03:33:12;17.70;99.90
61201;DHT22;47065;52.898;6.992;2022-08-05T03:35:38;17.70;99.90
61201;DHT22;47065;52.898;6.992;2022-08-05T03:38:04;17.70;99.90
61201;DHT22;47065;52.898;6.992;2022-08-05T03:40:29;17.70;99.90
61201;DHT22;47065;52.898;6.992;2022-08-05T03:42:55;17.70;99.90
61201;DHT22;47065;52.898;6.992;2022-08-05T03:45:21;17.70;99.90
61201;DHT22;47065;52.898;6.992;2022-08-05T03:47:46;17.70;99.90
61201;DHT22;47065;52.898;6.992;2022-08-05T03:50:12;17.60;99.90
61201;DHT22;47065;52.898;6.992;2022-08-05T03:53:18;17.60;99.90
61201;DHT22;47065;52.898;6.992;2022-08-05T03:55:51;17.60;99.90
61201;DHT22;47065;52.898;6.992;2022-08-05T03:58:19;17.60;99.90
61201;DHT22;47065;52.898;6.992;2022-08-05T04:00:48;17.60;99.90
61201;DHT22;47065;52.898;6.992;2022-08-05T04:03:14;17.60;99.90
61201;DHT22;47065;52.898;6.992;2022-08-05T04:05:42;17.60;99.90
61201;DHT22;47065;52.898;6.992;2022-08-05T04:08:09;17.60;99.90
61201;DHT22;47065;52.898;6.992;2022-08-05T04:10:36;17.60;99.90
61201;DHT22;47065;52.898;6.992;2022-08-05T04:13:02;17.50;99.90
61201;DHT22;47065;52.898;6.992;2022-08-05T04:15:28;17.60;99.90
61201;DHT22;47065;52.898;6.992;2022-08-05T04:17:54;17.60;99.90
61201;DHT22;47065;52.898;6.992;2022-08-05T04:20:21;17.60;99.90
61201;DHT22;47065;52.898;6.992;2022-08-05T04:22:47;17.50;99.90
61201;DHT22;47065;52.898;6.992;2022-08-05T04:25:13;17.50;99.90
61201;DHT22;47065;52.898;6.992;2022-08-05T04:27:38;17.50;99.90
61201;DHT22;47065;52.898;6.992;2022-08-05T04:30:05;17.50;99.90
61201;DHT22;47065;52.898;6.992;2022-08-05T04:32:31;17.50;99.90
61201;DHT22;47065;52.898;6.992;2022-08-05T04:34:56;17.50;99.90
61201;DHT22;47065;52.898;6.992;2022-08-05T04:37:22;17.50;99.90
61201;DHT22;47065;52.898;6.992;2022-08-05T04:39:47;17.60;99.90
61201;DHT22;47065;52.898;6.992;2022-08-05T04:42:14;17.60;99.90
61201;DHT22;47065;52.898;6.992;2022-08-05T04:44:40;17.50;99.90
61201;DHT22;47065;52.898;6.992;2022-08-05T04:47:05;17.50;99.90
61201;DHT22;47065;52.898;6.992;2022-08-05T04:49:31;17.60;99.90
61201;DHT22;47065;52.898;6.992;2022-08-05T04:51:57;17.60;99.90
61201;DHT22;47065;52.898;6.992;2022-08-05T04:54:23;17.50;99.90
61201;DHT22;47065;52.898;6.992;2022-08-05T04:56:52;17.50;99.90
61201;DHT22;47065;52.898;6.992;2022-08-05T04:59:18;17.50;99.90
61201;DHT22;47065;52.898;6.992;2022-08-05T05:01:45;17.50;99.90
61201;DHT22;47065;52.898;6.992;2022-08-05T05:04:10;17.50;99.90
61201;DHT22;47065;52.898;6.992;2022-08-05T05:06:37;17.50;99.90
61201;DHT22;47065;52.898;6.992;2022-08-05T05:09:03;17.50;99.90
61201;DHT22;47065;52.898;6.992;2022-08-05T05:11:29;17.50;99.90
61201;DHT22;47065;52.898;6.992;2022-08-05T05:13:54;17.50;99.90
61201;DHT22;47065;52.898;6.992;2022-08-05T05:16:20;17.40;99.90
61201;DHT22;47065;52.898;6.992;2022-08-05T05:18:45;17.50;99.90
61201;DHT22;47065;52.898;6.992;2022-08-05T05:21:11;17.40;99.90
61201;DHT22;47065;52.898;6.992;2022-08-05T05:23:37;17.40;99.90
61201;DHT22;47065;52.898;6.992;2022-08-05T05:26:03;17.40;99.90
61201;DHT22;47065;52.898;6.992;2022-08-05T05:28:29;17.40;99.90
61201;DHT22;47065;52.898;6.992;2022-08-05T05:30:54;17.40;99.90
61201;DHT22;47065;52.898;6.992;2022-08-05T05:33:20;17.40;99.90
61201;DHT22;47065;52.898;6.992;2022-08-05T05:35:46;17.40;99.90
61201;DHT22;47065;52.898;6.992;2022-08-05T05:38:12;17.40;99.90
61201;DHT22;47065;52.898;6.992;2022-08-05T05:40:38;17.40;99.90
61201;DHT22;47065;52.898;6.992;2022-08-05T05:43:04;17.50;99.90
61201;DHT22;47065;52.898;6.992;2022-08-05T05:45:29;17.50;99.90
61201;DHT22;47065;52.898;6.992;2022-08-05T05:47:58;17.50;99.90
61201;DHT22;47065;52.898;6.992;2022-08-05T05:50:24;17.60;99.90
61201;DHT22;47065;52.898;6.992;2022-08-05T05:52:50;17.60;99.90
61201;DHT22;47065;52.898;6.992;2022-08-05T05:55:16;17.50;99.90
61201;DHT22;47065;52.898;6.992;2022-08-05T05:57:43;17.60;99.90
61201;DHT22;47065;52.898;6.992;2022-08-05T06:00:14;17.60;99.90
61201;DHT22;47065;52.898;6.992;2022-08-05T06:02:41;17.70;99.90
61201;DHT22;47065;52.898;6.992;2022-08-05T06:05:08;17.70;99.90
61201;DHT22;47065;52.898;6.992;2022-08-05T06:07:33;17.70;99.90
61201;DHT22;47065;52.898;6.992;2022-08-05T06:09:59;17.70;99.90
61201;DHT22;47065;52.898;6.992;2022-08-05T06:12:25;17.70;99.90
61201;DHT22;47065;52.898;6.992;2022-08-05T06:14:51;17.70;99.90
61201;DHT22;47065;52.898;6.992;2022-08-05T06:17:16;17.70;99.90
61201;DHT22;47065;52.898;6.992;2022-08-05T06:19:42;17.70;99.90
61201;DHT22;47065;52.898;6.992;2022-08-05T06:22:07;17.80;99.90
61201;DHT22;47065;52.898;6.992;2022-08-05T06:24:34;17.80;99.90
61201;DHT22;47065;52.898;6.992;2022-08-05T06:27:01;17.80;99.90
61201;DHT22;47065;52.898;6.992;2022-08-05T06:29:27;17.80;99.90
61201;DHT22;47065;52.898;6.992;2022-08-05T06:31:53;17.80;99.90
61201;DHT22;47065;52.898;6.992;2022-08-05T06:34:18;17.80;99.90
61201;DHT22;47065;52.898;6.992;2022-08-05T06:36:44;17.80;99.90
61201;DHT22;47065;52.898;6.992;2022-08-05T06:39:10;17.90;99.90
61201;DHT22;47065;52.898;6.992;2022-08-05T06:41:35;17.90;99.90
61201;DHT22;47065;52.898;6.992;2022-08-05T06:44:01;18.00;99.90
61201;DHT22;47065;52.898;6.992;2022-08-05T06:46:27;18.00;99.90
61201;DHT22;47065;52.898;6.992;2022-08-05T06:48:52;18.10;99.90
61201;DHT22;47065;52.898;6.992;2022-08-05T06:51:18;18.20;99.90
61201;DHT22;47065;52.898;6.992;2022-08-05T06:53:44;18.20;99.90
61201;DHT22;47065;52.898;6.992;2022-08-05T06:56:09;18.30;99.90
61201;DHT22;47065;52.898;6.992;2022-08-05T06:58:35;18.30;99.90
61201;DHT22;47065;52.898;6.992;2022-08-05T07:01:01;18.40;99.90
61201;DHT22;47065;52.898;6.992;2022-08-05T07:03:28;18.40;99.90
61201;DHT22;47065;52.898;6.992;2022-08-05T07:05:54;18.50;99.90
61201;DHT22;47065;52.898;6.992;2022-08-05T07:08:20;18.60;99.90
61201;DHT22;47065;52.898;6.992;2022-08-05T07:10:50;18.60;99.90
61201;DHT22;47065;52.898;6.992;2022-08-05T07:13:16;18.70;99.90
61201;DHT22;47065;52.898;6.992;2022-08-05T07:16:01;18.80;99.90
61201;DHT22;47065;52.898;6.992;2022-08-05T07:18:45;18.80;99.90
61201;DHT22;47065;52.898;6.992;2022-08-05T07:21:11;18.90;99.90
61201;DHT22;47065;52.898;6.992;2022-08-05T07:23:36;18.90;99.90
61201;DHT22;47065;52.898;6.992;2022-08-05T07:26:03;19.00;99.90
61201;DHT22;47065;52.898;6.992;2022-08-05T07:28:29;19.00;99.90
61201;DHT22;47065;52.898;6.992;2022-08-05T07:30:54;19.00;99.90
61201;DHT22;47065;52.898;6.992;2022-08-05T07:33:20;19.10;99.90
61201;DHT22;47065;52.898;6.992;2022-08-05T07:35:46;19.10;99.90
61201;DHT22;47065;52.898;6.992;2022-08-05T07:38:15;19.10;99.90
61201;DHT22;47065;52.898;6.992;2022-08-05T07:40:41;19.20;99.90
61201;DHT22;47065;52.898;6.992;2022-08-05T07:43:09;19.20;99.90
61201;DHT22;47065;52.898;6.992;2022-08-05T07:45:35;19.20;99.90
61201;DHT22;47065;52.898;6.992;2022-08-05T07:48:00;19.20;99.90
61201;DHT22;47065;52.898;6.992;2022-08-05T07:50:26;19.20;99.90
61201;DHT22;47065;52.898;6.992;2022-08-05T07:52:52;19.30;99.90
61201;DHT22;47065;52.898;6.992;2022-08-05T07:55:17;19.40;99.90
61201;DHT22;47065;52.898;6.992;2022-08-05T07:57:43;19.50;99.90
61201;DHT22;47065;52.898;6.992;2022-08-05T08:00:09;19.60;99.90
61201;DHT22;47065;52.898;6.992;2022-08-05T08:02:35;19.70;99.90
61201;DHT22;47065;52.898;6.992;2022-08-05T08:05:01;19.80;99.90
61201;DHT22;47065;52.898;6.992;2022-08-05T08:07:27;19.90;99.90
61201;DHT22;47065;52.898;6.992;2022-08-05T08:09:53;20.00;99.90
61201;DHT22;47065;52.898;6.992;2022-08-05T08:12:19;20.10;99.90
61201;DHT22;47065;52.898;6.992;2022-08-05T08:14:45;20.10;99.90
61201;DHT22;47065;52.898;6.992;2022-08-05T08:17:11;20.20;99.90
61201;DHT22;47065;52.898;6.992;2022-08-05T08:19:37;20.20;99.90
61201;DHT22;47065;52.898;6.992;2022-08-05T08:22:03;20.30;99.90
61201;DHT22;47065;52.898;6.992;2022-08-05T08:24:29;20.40;99.90
61201;DHT22;47065;52.898;6.992;2022-08-05T08:26:55;20.50;99.90
61201;DHT22;47065;52.898;6.992;2022-08-05T08:29:20;20.60;99.90
61201;DHT22;47065;52.898;6.992;2022-08-05T08:31:46;20.70;99.90
61201;DHT22;47065;52.898;6.992;2022-08-05T08:34:12;20.70;99.90
61201;DHT22;47065;52.898;6.992;2022-08-05T08:36:38;21.00;99.90
61201;DHT22;47065;52.898;6.992;2022-08-05T08:39:04;21.60;99.90
61201;DHT22;47065;52.898;6.992;2022-08-05T08:41:32;22.00;99.90
61201;DHT22;47065;52.898;6.992;2022-08-05T08:44:00;22.30;99.90
61201;DHT22;47065;52.898;6.992;2022-08-05T08:46:28;22.40;99.90
61201;DHT22;47065;52.898;6.992;2022-08-05T08:48:56;22.40;99.90
61201;DHT22;47065;52.898;6.992;2022-08-05T08:51:23;22.40;99.90
61201;DHT22;47065;52.898;6.992;2022-08-05T08:53:49;22.50;99.90
61201;DHT22;47065;52.898;6.992;2022-08-05T08:56:15;22.50;99.90
61201;DHT22;47065;52.898;6.992;2022-08-05T08:58:42;22.60;99.90
61201;DHT22;47065;52.898;6.992;2022-08-05T09:01:08;22.60;99.90
61201;DHT22;47065;52.898;6.992;2022-08-05T09:03:35;22.60;99.90
61201;DHT22;47065;52.898;6.992;2022-08-05T09:06:01;22.50;99.90
61201;DHT22;47065;52.898;6.992;2022-08-05T09:08:26;22.50;99.90
61201;DHT22;47065;52.898;6.992;2022-08-05T09:10:52;22.50;99.90
61201;DHT22;47065;52.898;6.992;2022-08-05T09:13:18;22.70;99.90
61201;DHT22;47065;52.898;6.992;2022-08-05T09:15:45;23.00;99.90
61201;DHT22;47065;52.898;6.992;2022-08-05T09:18:11;23.10;99.90
61201;DHT22;47065;52.898;6.992;2022-08-05T09:20:37;23.10;99.90
61201;DHT22;47065;52.898;6.992;2022-08-05T09:23:13;23.10;99.90
61201;DHT22;47065;52.898;6.992;2022-08-05T09:25:41;23.00;99.90
61201;DHT22;47065;52.898;6.992;2022-08-05T09:28:19;23.00;99.90
61201;DHT22;47065;52.898;6.992;2022-08-05T09:31:03;23.10;99.70
61201;DHT22;47065;52.898;6.992;2022-08-05T09:33:30;23.00;99.10
61201;DHT22;47065;52.898;6.992;2022-08-05T09:35:58;23.00;99.30
61201;DHT22;47065;52.898;6.992;2022-08-05T09:38:25;23.10;99.90
61201;DHT22;47065;52.898;6.992;2022-08-05T09:40:52;23.10;95.70
61201;DHT22;47065;52.898;6.992;2022-08-05T09:43:45;23.00;96.50
61201;DHT22;47065;52.898;6.992;2022-08-05T09:46:27;23.00;96.20
61201;DHT22;47065;52.898;6.992;2022-08-05T09:48:55;23.20;95.40
61201;DHT22;47065;52.898;6.992;2022-08-05T09:51:35;23.30;94.10
61201;DHT22;47065;52.898;6.992;2022-08-05T09:54:03;23.30;95.50
61201;DHT22;47065;52.898;6.992;2022-08-05T09:56:33;23.10;95.10
61201;DHT22;47065;52.898;6.992;2022-08-05T09:59:06;23.00;96.60
61201;DHT22;47065;52.898;6.992;2022-08-05T10:01:34;23.00;96.90
61201;DHT22;47065;52.898;6.992;2022-08-05T10:04:10;22.80;98.10
61201;DHT22;47065;52.898;6.992;2022-08-05T10:06:51;22.60;98.80
61201;DHT22;47065;52.898;6.992;2022-08-05T10:09:18;22.40;99.30
61201;DHT22;47065;52.898;6.992;2022-08-05T10:11:46;22.30;99.90
61201;DHT22;47065;52.898;6.992;2022-08-05T10:14:26;22.20;99.90
61201;DHT22;47065;52.898;6.992;2022-08-05T10:16:54;22.00;99.90
61201;DHT22;47065;52.898;6.992;2022-08-05T10:19:25;22.30;99.90
61201;DHT22;47065;52.898;6.992;2022-08-05T10:21:51;22.80;99.30
61201;DHT22;47065;52.898;6.992;2022-08-05T10:24:17;23.30;97.40
61201;DHT22;47065;52.898;6.992;2022-08-05T10:26:44;23.50;96.80
61201;DHT22;47065;52.898;6.992;2022-08-05T10:29:10;23.50;96.20
61201;DHT22;47065;52.898;6.992;2022-08-05T10:31:37;23.40;94.00
61201;DHT22;47065;52.898;6.992;2022-08-05T10:34:05;23.10;95.00
61201;DHT22;47065;52.898;6.992;2022-08-05T10:36:32;22.80;96.20
61201;DHT22;47065;52.898;6.992;2022-08-05T10:39:03;22.70;96.30
61201;DHT22;47065;52.898;6.992;2022-08-05T10:41:33;22.80;95.70
61201;DHT22;47065;52.898;6.992;2022-08-05T10:44:10;23.10;95.80
61201;DHT22;47065;52.898;6.992;2022-08-05T10:46:46;23.50;92.00
61201;DHT22;47065;52.898;6.992;2022-08-05T10:49:12;23.60;90.80
61201;DHT22;47065;52.898;6.992;2022-08-05T10:51:48;23.60;91.60
61201;DHT22;47065;52.898;6.992;2022-08-05T10:54:16;23.60;85.90
61201;DHT22;47065;52.898;6.992;2022-08-05T10:56:50;23.60;90.50
61201;DHT22;47065;52.898;6.992;2022-08-05T10:59:28;23.60;86.20
61201;DHT22;47065;52.898;6.992;2022-08-05T11:02:08;23.50;80.30
61201;DHT22;47065;52.898;6.992;2022-08-05T11:04:44;23.50;85.00
61201;DHT22;47065;52.898;6.992;2022-08-05T11:07:10;23.60;67.60
61201;DHT22;47065;52.898;6.992;2022-08-05T11:09:50;23.80;76.90
61201;DHT22;47065;52.898;6.992;2022-08-05T11:15:05;24.10;74.90
61201;DHT22;47065;52.898;6.992;2022-08-05T11:17:35;24.30;67.10
61201;DHT22;47065;52.898;6.992;2022-08-05T11:20:51;24.40;62.60
61201;DHT22;47065;52.898;6.992;2022-08-05T11:22:51;24.50;60.80
61201;DHT22;47065;52.898;6.992;2022-08-05T11:25:33;24.60;61.10
61201;DHT22;47065;52.898;6.992;2022-08-05T11:33:27;24.60;57.30
61201;DHT22;47065;52.898;6.992;2022-08-05T11:36:15;24.50;57.40
61201;DHT22;47065;52.898;6.992;2022-08-05T11:46:27;24.40;55.50
61201;DHT22;47065;52.898;6.992;2022-08-05T11:48:54;24.40;53.00
61201;DHT22;47065;52.898;6.992;2022-08-05T11:51:20;24.40;51.00
61201;DHT22;47065;52.898;6.992;2022-08-05T11:53:47;24.40;50.80
61201;DHT22;47065;52.898;6.992;2022-08-05T11:56:13;24.40;49.90
61201;DHT22;47065;52.898;6.992;2022-08-05T11:58:41;24.40;50.00
61201;DHT22;47065;52.898;6.992;2022-08-05T12:01:10;24.40;50.10
61201;DHT22;47065;52.898;6.992;2022-08-05T12:03:51;24.40;51.00
61201;DHT22;47065;52.898;6.992;2022-08-05T12:08:52;24.50;49.50
61201;DHT22;47065;52.898;6.992;2022-08-05T12:11:20;24.50;49.50
61201;DHT22;47065;52.898;6.992;2022-08-05T12:16:18;24.40;49.60
61201;DHT22;47065;52.898;6.992;2022-08-05T12:18:44;24.40;49.00
61201;DHT22;47065;52.898;6.992;2022-08-05T12:21:12;24.40;50.10
61201;DHT22;47065;52.898;6.992;2022-08-05T12:23:38;24.50;50.50
61201;DHT22;47065;52.898;6.992;2022-08-05T12:26:04;24.60;50.80
61201;DHT22;47065;52.898;6.992;2022-08-05T12:28:36;24.60;51.50
61201;DHT22;47065;52.898;6.992;2022-08-05T12:31:03;24.60;50.60
61201;DHT22;47065;52.898;6.992;2022-08-05T12:33:29;24.50;50.80
61201;DHT22;47065;52.898;6.992;2022-08-05T12:35:55;24.30;50.60
61201;DHT22;47065;52.898;6.992;2022-08-05T12:38:22;24.30;50.60
61201;DHT22;47065;52.898;6.992;2022-08-05T12:40:48;24.20;52.00
61201;DHT22;47065;52.898;6.992;2022-08-05T12:43:14;24.00;53.50
61201;DHT22;47065;52.898;6.992;2022-08-05T12:45:54;23.90;53.60
61201;DHT22;47065;52.898;6.992;2022-08-05T12:48:21;23.70;53.10
61201;DHT22;47065;52.898;6.992;2022-08-05T12:51:08;23.60;53.40
61201;DHT22;47065;52.898;6.992;2022-08-05T12:53:39;23.60;52.40
61201;DHT22;47065;52.898;6.992;2022-08-05T12:56:21;23.50;50.40
61201;DHT22;47065;52.898;6.992;2022-08-05T12:59:13;23.40;51.70
61201;DHT22;47065;52.898;6.992;2022-08-05T13:01:41;23.10;52.90
61201;DHT22;47065;52.898;6.992;2022-08-05T13:04:07;22.80;53.50
61201;DHT22;47065;52.898;6.992;2022-08-05T13:06:36;22.70;54.50
61201;DHT22;47065;52.898;6.992;2022-08-05T13:09:08;22.80;55.80
61201;DHT22;47065;52.898;6.992;2022-08-05T13:11:37;23.00;55.00
61201;DHT22;47065;52.898;6.992;2022-08-05T13:14:19;23.00;57.80
61201;DHT22;47065;52.898;6.992;2022-08-05T13:16:46;22.90;61.10
61201;DHT22;47065;52.898;6.992;2022-08-05T13:19:12;22.70;62.10
61201;DHT22;47065;52.898;6.992;2022-08-05T13:21:39;22.50;65.40
61201;DHT22;47065;52.898;6.992;2022-08-05T13:24:05;22.30;65.40
61201;DHT22;47065;52.898;6.992;2022-08-05T13:26:31;22.30;66.70
61201;DHT22;47065;52.898;6.992;2022-08-05T13:28:57;22.50;66.80
61201;DHT22;47065;52.898;6.992;2022-08-05T13:31:23;22.60;64.60
61201;DHT22;47065;52.898;6.992;2022-08-05T13:33:48;22.70;63.10
61201;DHT22;47065;52.898;6.992;2022-08-05T13:36:14;22.50;60.80
61201;DHT22;47065;52.898;6.992;2022-08-05T13:38:40;22.20;60.20
61201;DHT22;47065;52.898;6.992;2022-08-05T13:41:05;22.00;61.40
61201;DHT22;47065;52.898;6.992;2022-08-05T13:43:31;21.90;62.60
61201;DHT22;47065;52.898;6.992;2022-08-05T13:45:57;22.00;64.40
61201;DHT22;47065;52.898;6.992;2022-08-05T13:48:22;22.10;66.10
61201;DHT22;47065;52.898;6.992;2022-08-05T13:50:48;22.30;67.00
61201;DHT22;47065;52.898;6.992;2022-08-05T13:53:14;22.30;62.70
61201;DHT22;47065;52.898;6.992;2022-08-05T13:55:39;22.40;62.70
61201;DHT22;47065;52.898;6.992;2022-08-05T13:58:05;22.50;61.70
61201;DHT22;47065;52.898;6.992;2022-08-05T14:00:30;22.50;61.50
61201;DHT22;47065;52.898;6.992;2022-08-05T14:02:56;22.50;62.20
61201;DHT22;47065;52.898;6.992;2022-08-05T14:05:22;22.60;64.40
61201;DHT22;47065;52.898;6.992;2022-08-05T14:07:47;22.80;62.30
61201;DHT22;47065;52.898;6.992;2022-08-05T14:10:17;22.90;61.90
61201;DHT22;47065;52.898;6.992;2022-08-05T14:12:43;23.00;60.20
61201;DHT22;47065;52.898;6.992;2022-08-05T14:15:10;23.00;57.90
61201;DHT22;47065;52.898;6.992;2022-08-05T14:17:36;23.00;60.40
61201;DHT22;47065;52.898;6.992;2022-08-05T14:20:04;22.80;63.60
61201;DHT22;47065;52.898;6.992;2022-08-05T14:22:30;22.60;64.60
61201;DHT22;47065;52.898;6.992;2022-08-05T14:24:56;22.50;64.50
61201;DHT22;47065;52.898;6.992;2022-08-05T14:27:21;22.20;65.60
61201;DHT22;47065;52.898;6.992;2022-08-05T14:29:49;22.00;66.40
61201;DHT22;47065;52.898;6.992;2022-08-05T14:32:15;21.90;64.30
61201;DHT22;47065;52.898;6.992;2022-08-05T14:34:41;21.70;65.80
61201;DHT22;47065;52.898;6.992;2022-08-05T14:37:06;21.60;68.80
61201;DHT22;47065;52.898;6.992;2022-08-05T14:39:33;21.60;71.00
61201;DHT22;47065;52.898;6.992;2022-08-05T14:41:58;21.60;69.70
61201;DHT22;47065;52.898;6.992;2022-08-05T14:44:24;21.70;66.80
61201;DHT22;47065;52.898;6.992;2022-08-05T14:46:50;21.90;64.40
61201;DHT22;47065;52.898;6.992;2022-08-05T14:49:15;22.00;64.60
61201;DHT22;47065;52.898;6.992;2022-08-05T14:51:41;22.00;64.70
61201;DHT22;47065;52.898;6.992;2022-08-05T14:54:07;22.10;64.70
61201;DHT22;47065;52.898;6.992;2022-08-05T14:56:33;22.20;63.40
61201;DHT22;47065;52.898;6.992;2022-08-05T14:58:59;22.30;61.90
61201;DHT22;47065;52.898;6.992;2022-08-05T15:01:26;22.50;61.50
61201;DHT22;47065;52.898;6.992;2022-08-05T15:03:51;22.60;60.70
61201;DHT22;47065;52.898;6.992;2022-08-05T15:06:17;22.60;59.50
61201;DHT22;47065;52.898;6.992;2022-08-05T15:08:43;22.50;60.40
61201;DHT22;47065;52.898;6.992;2022-08-05T15:11:09;22.20;61.90
61201;DHT22;47065;52.898;6.992;2022-08-05T15:13:34;21.90;60.50
61201;DHT22;47065;52.898;6.992;2022-08-05T15:16:01;21.70;64.70
61201;DHT22;47065;52.898;6.992;2022-08-05T15:18:26;21.70;65.30
61201;DHT22;47065;52.898;6.992;2022-08-05T15:20:52;21.80;65.50
61201;DHT22;47065;52.898;6.992;2022-08-05T15:23:18;21.90;64.80
61201;DHT22;47065;52.898;6.992;2022-08-05T15:25:44;22.00;65.90
61201;DHT22;47065;52.898;6.992;2022-08-05T15:28:10;22.10;66.60
61201;DHT22;47065;52.898;6.992;2022-08-05T15:30:36;22.20;67.60
61201;DHT22;47065;52.898;6.992;2022-08-05T15:33:02;22.30;66.80
61201;DHT22;47065;52.898;6.992;2022-08-05T15:35:28;22.40;65.50
61201;DHT22;47065;52.898;6.992;2022-08-05T15:37:56;22.40;66.80
61201;DHT22;47065;52.898;6.992;2022-08-05T15:40:22;22.50;67.60
61201;DHT22;47065;52.898;6.992;2022-08-05T15:42:47;22.50;67.30
61201;DHT22;47065;52.898;6.992;2022-08-05T15:45:13;22.60;63.40
61201;DHT22;47065;52.898;6.992;2022-08-05T15:47:40;22.50;59.30
61201;DHT22;47065;52.898;6.992;2022-08-05T15:50:07;22.30;60.00
61201;DHT22;47065;52.898;6.992;2022-08-05T15:52:36;22.10;62.90
61201;DHT22;47065;52.898;6.992;2022-08-05T15:55:03;21.90;65.50
61201;DHT22;47065;52.898;6.992;2022-08-05T15:57:29;21.70;69.00
61201;DHT22;47065;52.898;6.992;2022-08-05T15:59:55;21.60;74.90
61201;DHT22;47065;52.898;6.992;2022-08-05T16:02:21;21.60;77.30
61201;DHT22;47065;52.898;6.992;2022-08-05T16:04:47;21.60;77.30
61201;DHT22;47065;52.898;6.992;2022-08-05T16:07:13;21.50;79.30
61201;DHT22;47065;52.898;6.992;2022-08-05T16:09:39;21.50;72.70